Time;durP1;ratioP1;P1;durP2;ratioP2;P2;SDS_P1;SDS_P2;PMS_P1;PMS_P2;Temp;Humidity;BMP_temperature;BMP_pressure;BME280_temperature;BME280_humidity;BME280_pressure;Samples;Min_cycle;Max_cycle;Signal;HPM_P1;HPM_P2
2024/04/12 00:01:32;;;;;;;28.20;15.70;;;;;;;14.58;100.00;102864.06;6821028;26;20022;-72
2024/04/12 00:04:35;;;;;;;35.55;18.92;;;;;;;14.56;100.00;102857.97;6820818;26;19994;-72
2024/04/12 00:07:40;;;;;;;37.28;17.08;;;;;;;14.54;100.00;102865.97;6820290;26;19998;-71
2024/04/12 00:10:43;;;;;;;36.28;17.55;;;;;;;14.52;100.00;102872.22;6820315;26;19994;-71
2024/04/12 00:13:47;;;;;;;33.53;16.73;;;;;;;14.55;100.00;102859.75;6820016;26;20005;-72
2024/04/12 00:16:52;;;;;;;36.97;17.17;;;;;;;14.56;100.00;102863.25;6816332;26;20010;-72
2024/04/12 00:19:53;;;;;;;36.97;18.58;;;;;;;14.54;100.00;102865.13;6785716;26;20378;-72
2024/04/12 00:23:02;;;;;;;35.60;17.58;;;;;;;14.51;100.00;102863.44;6820328;26;20035;-72
2024/04/12 00:26:03;;;;;;;;;;;;;;;14.50;100.00;102861.72;6786351;26;20362;-72
2024/04/12 00:29:08;;;;;;;37.75;18.13;;;;;;;14.53;100.00;102852.78;6820072;26;19935;-72
2024/04/12 00:32:13;;;;;;;40.00;18.35;;;;;;;14.56;100.00;102847.38;6820297;26;20250;-72
2024/04/12 00:35:19;;;;;;;33.53;15.85;;;;;;;14.54;100.00;102841.31;6820066;26;20444;-72
2024/04/12 00:38:23;;;;;;;34.70;17.10;;;;;;;14.56;100.00;102834.16;6819753;26;19986;-72
2024/04/12 00:41:26;;;;;;;30.30;16.13;;;;;;;14.56;100.00;102818.28;6819550;26;20008;-72
2024/04/12 00:44:29;;;;;;;29.42;15.65;;;;;;;14.53;100.00;102827.19;6812491;26;19998;-72
2024/04/12 00:47:32;;;;;;;37.72;17.10;;;;;;;14.54;100.00;102821.00;6793909;26;20091;-71
2024/04/12 00:50:34;;;;;;;30.70;15.30;;;;;;;14.52;100.00;102817.53;6820317;26;20057;-72
2024/04/12 00:53:40;;;;;;;31.05;15.05;;;;;;;14.49;100.00;102817.66;6819498;26;20380;-72
2024/04/12 00:56:41;;;;;;;26.98;13.95;;;;;;;14.50;100.00;102819.38;6785082;26;19998;-71
2024/04/12 00:59:44;;;;;;;29.35;15.10;;;;;;;14.51;100.00;102820.22;6819412;26;19994;-72
2024/04/12 01:02:48;;;;;;;35.05;16.35;;;;;;;14.50;100.00;102816.72;6819340;26;20366;-72
2024/04/12 01:05:51;;;;;;;28.50;13.82;;;;;;;14.53;100.00;102816.59;6819309;26;20009;-72
2024/04/12 01:08:57;;;;;;;38.47;18.52;;;;;;;14.51;100.00;102822.88;6819413;26;20254;-72
2024/04/12 01:12:01;;;;;;;26.30;14.27;;;;;;;14.50;100.00;102818.50;6818928;26;19994;-71
2024/04/12 01:15:07;;;;;;;29.63;14.55;;;;;;;14.51;100.00;102821.09;6819434;26;19994;-72
2024/04/12 01:18:14;;;;;;;32.03;15.75;;;;;;;14.47;100.00;102820.31;6818931;26;19994;-71
2024/04/12 01:21:15;;;;;;;38.05;15.55;;;;;;;14.47;100.00;102817.66;6784850;26;20000;-72
2024/04/12 01:24:21;;;;;;;34.63;16.60;;;;;;;14.40;100.00;102810.88;6673065;26;20001;-72
2024/04/12 01:27:24;;;;;;;30.10;15.55;;;;;;;14.47;100.00;102822.09;6675448;26;20044;-73
2024/04/12 01:30:30;;;;;;;30.10;15.55;;;;;;;14.45;100.00;102806.28;6677652;26;19997;-72
2024/04/12 01:33:31;;;;;;;37.00;15.68;;;;;;;14.46;100.00;102813.28;6677148;26;19992;-73
2024/04/12 01:36:34;;;;;;;30.75;13.98;;;;;;;14.46;100.00;102804.50;6676956;26;20004;-73
2024/04/12 01:39:35;;;;;;;27.17;14.20;;;;;;;14.48;100.00;102807.97;6676666;26;19993;-72
2024/04/12 01:42:43;;;;;;;29.88;13.73;;;;;;;14.48;100.00;102797.38;6676871;26;20011;-72
2024/04/12 01:45:43;;;;;;;28.65;13.88;;;;;;;14.49;100.00;102804.44;6676735;26;19996;-72
2024/04/12 01:48:47;;;;;;;24.77;13.48;;;;;;;14.47;100.00;102801.78;6676782;26;20281;-73
2024/04/12 01:51:53;;;;;;;27.02;13.32;;;;;;;14.48;100.00;102807.97;6676541;26;20083;-73
2024/04/12 01:55:05;;;;;;;26.60;12.57;;;;;;;14.52;100.00;102806.06;6676709;26;20016;-73
2024/04/12 01:58:10;;;;;;;29.60;12.63;;;;;;;14.51;100.00;102810.50;6676641;26;20001;-73
2024/04/12 02:01:11;;;;;;;26.00;11.60;;;;;;;14.52;100.00;102804.28;6676376;26;19993;-73
2024/04/12 02:04:18;;;;;;;30.88;13.35;;;;;;;14.51;100.00;102807.88;6676466;26;20000;-73
2024/04/12 02:07:18;;;;;;;31.77;12.98;;;;;;;14.52;100.00;102809.59;6676515;26;20012;-72
2024/04/12 02:10:22;;;;;;;26.45;12.75;;;;;;;14.50;100.00;102795.56;6676306;26;20008;-72
2024/04/12 02:13:35;;;;;;;23.58;12.45;;;;;;;14.54;100.00;102788.38;6676229;26;20004;-72
2024/04/12 02:16:39;;;;;;;23.95;12.20;;;;;;;14.55;100.00;102785.66;6676183;26;20007;-72
2024/04/12 02:19:46;;;;;;;22.02;11.90;;;;;;;14.55;100.00;102780.38;6676504;26;20340;-73
2024/04/12 02:22:49;;;;;;;27.33;12.13;;;;;;;14.55;100.00;102782.16;6676343;26;20002;-74
2024/04/12 02:25:54;;;;;;;21.60;11.18;;;;;;;14.55;100.00;102768.94;6674418;26;20372;-73
2024/04/12 02:29:01;;;;;;;17.00;9.00;;;;;;;14.53;100.00;102768.09;6676037;26;20396;-73
2024/04/12 02:32:02;;;;;;;26.48;11.55;;;;;;;14.53;100.00;102776.03;6675861;26;20283;-73
2024/04/12 02:35:05;;;;;;;25.40;12.00;;;;;;;14.48;100.00;102781.50;6702939;26;20008;-74
2024/04/12 02:38:06;;;;;;;30.05;12.57;;;;;;;14.51;100.00;102769.97;6718067;26;19992;-73
2024/04/12 02:41:13;;;;;;;21.42;11.65;;;;;;;14.51;100.00;102777.91;6756461;26;20086;-73
2024/04/12 02:44:16;;;;;;;22.48;10.57;;;;;;;14.53;100.00;102768.09;6796565;26;20006;-73
2024/04/12 02:47:19;;;;;;;24.90;12.25;;;;;;;14.53;100.00;102766.31;6711189;26;20005;-73
2024/04/12 02:50:22;;;;;;;27.58;11.73;;;;;;;14.52;100.00;102769.91;6787622;26;20255;-73
2024/04/12 02:53:25;;;;;;;26.42;11.05;;;;;;;14.57;100.00;102765.28;6821429;26;20385;-73
2024/04/12 02:56:31;;;;;;;24.80;12.32;;;;;;;14.55;100.00;102764.50;6822113;26;20058;-74
2024/04/12 02:59:36;;;;;;;32.20;12.63;;;;;;;14.59;100.00;102758.19;6821861;26;20014;-73
2024/04/12 03:02:37;;;;;;;22.95;11.57;;;;;;;14.58;100.00;102753.81;6821963;26;19994;-73
2024/04/12 03:05:41;;;;;;;30.38;13.00;;;;;;;14.56;100.00;102739.75;6821782;26;20074;-74
2024/04/12 03:08:47;;;;;;;27.13;12.23;;;;;;;14.56;100.00;102730.97;6821409;26;20065;-72
2024/04/12 03:11:47;;;;;;;20.77;10.93;;;;;;;14.57;100.00;102722.09;6742238;26;20307;-73
2024/04/12 03:14:54;;;;;;;24.88;10.88;;;;;;;14.56;100.00;102728.31;6719424;26;19999;-73
2024/04/12 03:17:54;;;;;;;21.48;10.88;;;;;;;14.57;100.00;102717.66;6719074;26;20006;-73
2024/04/12 03:20:57;;;;;;;20.17;10.27;;;;;;;14.60;100.00;102722.84;6702972;26;20004;-73
2024/04/12 03:23:58;;;;;;;20.13;10.27;;;;;;;14.60;100.00;102729.94;6675269;26;20273;-74
2024/04/12 03:27:01;;;;;;;21.10;10.07;;;;;;;14.61;100.00;102726.34;6777642;26;20047;-73
2024/04/12 03:30:13;;;;;;;23.60;11.18;;;;;;;14.65;100.00;102735.91;6786950;26;20002;-73
2024/04/12 03:33:16;;;;;;;23.67;9.93;;;;;;;14.58;100.00;102737.03;6821346;26;20418;-73
2024/04/12 03:36:39;;;;;;;18.63;9.75;;;;;;;14.59;100.00;102744.09;6821101;26;19997;-73
2024/04/12 03:39:45;;;;;;;21.73;10.95;;;;;;;14.62;100.00;102742.16;6743422;26;20011;-73
2024/04/12 03:42:48;;;;;;;22.98;11.20;;;;;;;14.67;100.00;102732.28;6715976;26;20709;-73
2024/04/12 03:45:57;;;;;;;23.60;10.98;;;;;;;14.68;100.00;102736.66;6674795;26;20364;-73
2024/04/12 03:49:02;;;;;;;19.35;10.13;;;;;;;14.73;100.00;102732.97;6722613;21;20262;-78
2024/04/12 03:52:04;;;;;;;20.02;10.68;;;;;;;14.71;100.00;102725.94;6771387;26;19999;-78
2024/04/12 03:55:09;;;;;;;25.15;11.32;;;;;;;14.69;100.00;102721.63;6775769;26;20051;-79
2024/04/12 03:58:09;;;;;;;20.25;9.75;;;;;;;14.72;100.00;102726.81;6775515;26;20002;-78
2024/04/12 04:01:15;;;;;;;17.80;9.10;;;;;;;14.77;100.00;102711.63;6775293;26;20027;-77
2024/04/12 04:04:19;;;;;;;19.83;9.50;;;;;;;14.70;100.00;102720.69;6774855;26;20059;-78
2024/04/12 04:07:22;;;;;;;21.10;9.38;;;;;;;14.74;100.00;102716.16;6775426;26;20010;-77
2024/04/12 04:10:25;;;;;;;23.48;8.60;;;;;;;14.71;100.00;102717.97;6775311;26;20051;-78
2024/04/12 04:13:28;;;;;;;18.05;8.70;;;;;;;14.74;100.00;102718.81;6775203;26;20002;-78
2024/04/12 04:16:36;;;;;;;19.90;9.63;;;;;;;14.72;100.00;102716.22;6775341;26;20030;-78
2024/04/12 04:19:41;;;;;;;19.08;8.98;;;;;;;14.65;100.00;102731.47;6775031;26;20005;-77
2024/04/12 04:22:41;;;;;;;16.83;8.90;;;;;;;14.67;100.00;102740.22;6775003;26;20006;-77
2024/04/12 04:25:45;;;;;;;15.65;7.97;;;;;;;14.70;100.00;102736.56;6775004;26;19997;-78
2024/04/12 04:28:45;;;;;;;14.93;7.88;;;;;;;14.71;100.00;102733.88;6774949;26;19995;-77
2024/04/12 04:31:52;;;;;;;15.52;8.25;;;;;;;14.64;100.00;102742.97;6774792;26;19997;-79
2024/04/12 04:34:55;;;;;;;18.63;9.00;;;;;;;14.61;100.00;102742.22;6775117;26;20394;-77
2024/04/12 04:37:58;;;;;;;16.38;8.35;;;;;;;14.71;100.00;102743.59;6774601;26;20302;-78
2024/04/12 04:40:59;;;;;;;16.75;8.32;;;;;;;14.71;100.00;102749.75;6774468;26;19999;-78
2024/04/12 04:44:02;;;;;;;16.15;8.27;;;;;;;14.66;100.00;102750.84;6774851;26;19995;-77
2024/04/12 04:47:05;;;;;;;15.73;8.10;;;;;;;14.67;100.00;102750.81;6774761;26;19995;-78
2024/04/12 04:50:08;;;;;;;17.83;8.90;;;;;;;14.66;100.00;102751.72;6774767;26;20275;-78
2024/04/12 04:53:11;;;;;;;15.07;7.53;;;;;;;14.62;100.00;102744.81;6774166;26;20058;-78
2024/04/12 04:56:24;;;;;;;14.00;7.78;;;;;;;14.63;100.00;102743.91;6774427;26;20006;-78
2024/04/12 04:59:32;;;;;;;18.83;8.43;;;;;;;14.64;100.00;102737.69;6774375;26;19990;-77
2024/04/12 05:02:35;;;;;;;15.82;6.95;;;;;;;14.67;100.00;102736.69;6772926;26;20002;-78
2024/04/12 05:05:41;;;;;;;14.88;7.60;;;;;;;14.66;100.00;102729.69;6774455;26;20007;-77
2024/04/12 05:08:43;;;;;;;16.45;7.40;;;;;;;14.64;100.00;102720.94;6774527;26;19998;-78
2024/04/12 05:11:49;;;;;;;14.27;7.88;;;;;;;14.63;100.00;102706.84;6774169;26;20006;-78
2024/04/12 05:14:54;;;;;;;15.35;7.50;;;;;;;14.60;100.00;102712.25;6774724;26;19998;-79
2024/04/12 05:18:03;;;;;;;15.05;7.20;;;;;;;14.63;100.00;102721.88;6773883;26;20051;-78
2024/04/12 05:21:12;;;;;;;15.70;8.35;;;;;;;14.59;100.00;102705.25;6773671;26;19995;-78
2024/04/12 05:24:13;;;;;;;;;;;;;;;14.61;100.00;102713.13;6774839;26;19995;-77
2024/04/12 05:27:16;;;;;;;16.70;7.63;;;;;;;14.62;100.00;102704.25;6774021;26;19954;-78
2024/04/12 05:30:18;;;;;;;12.07;6.10;;;;;;;14.60;100.00;102696.38;6774021;26;20059;-78
2024/04/12 05:33:24;;;;;;;12.68;7.00;;;;;;;14.62;100.00;102694.53;6773524;26;20292;-78
2024/04/12 05:36:25;;;;;;;15.40;6.60;;;;;;;14.61;100.00;102681.38;6773662;26;20239;-77
2024/04/12 05:39:28;;;;;;;11.02;6.30;;;;;;;14.65;100.00;102675.91;6773289;26;20022;-78
2024/04/12 05:42:30;;;;;;;12.38;6.43;;;;;;;14.71;100.00;102680.06;6773372;26;19991;-78
2024/04/12 05:45:39;;;;;;;10.02;6.03;;;;;;;14.74;100.00;102679.09;6773326;26;19999;-78
2024/04/12 05:48:45;;;;;;;10.80;6.43;;;;;;;14.74;100.00;102690.53;6773577;26;19995;-79
2024/04/12 05:51:45;;;;;;;12.15;5.88;;;;;;;14.73;100.00;102686.19;6773171;26;20055;-78
2024/04/12 05:54:50;;;;;;;15.50;6.32;;;;;;;14.81;100.00;102681.44;6773630;26;20003;-77
2024/04/12 05:57:51;;;;;;;11.52;5.57;;;;;;;14.86;100.00;102683.91;6772872;26;20006;-78
2024/04/12 06:00:56;;;;;;;11.05;6.05;;;;;;;14.93;100.00;102683.59;6772812;26;20262;-78
2024/04/12 06:04:00;;;;;;;14.48;6.95;;;;;;;14.95;100.00;102689.69;6773409;26;19995;-78
2024/04/12 06:07:11;;;;;;;12.27;6.38;;;;;;;14.94;100.00;102687.09;6772988;26;19995;-78
2024/04/12 06:10:13;;;;;;;12.57;6.25;;;;;;;14.98;100.00;102683.41;6772781;26;20050;-77
2024/04/12 06:13:17;;;;;;;9.80;5.72;;;;;;;15.01;100.00;102671.84;6776117;26;20007;-78
2024/04/12 06:16:20;;;;;;;12.15;6.43;;;;;;;14.98;100.00;102686.91;6777431;26;19994;-78
2024/04/12 06:19:24;;;;;;;11.02;6.57;;;;;;;15.00;100.00;102696.59;6777373;26;20059;-77
2024/04/12 06:22:31;;;;;;;15.18;6.90;;;;;;;15.01;100.00;102691.22;6777189;26;19995;-77
2024/04/12 06:25:31;;;;;;;12.57;7.93;;;;;;;15.04;100.00;102699.06;6777398;26;20363;-77
2024/04/12 06:28:36;;;;;;;11.20;7.10;;;;;;;15.03;100.00;102693.78;6777201;26;19990;-78
2024/04/12 06:31:37;;;;;;;18.15;8.25;;;;;;;15.02;100.00;102689.44;6777207;26;20010;-78
2024/04/12 06:34:42;;;;;;;19.17;7.63;;;;;;;15.02;100.00;102685.00;6777115;26;20306;-78
2024/04/12 06:37:44;;;;;;;16.05;7.60;;;;;;;15.05;100.00;102687.53;6777307;26;19991;-79
2024/04/12 06:40:53;;;;;;;15.35;8.43;;;;;;;15.10;100.00;102685.56;6776637;26;19994;-78
2024/04/12 06:43:54;;;;;;;19.63;8.73;;;;;;;15.15;100.00;102672.97;6777335;26;20479;-79
2024/04/12 06:46:58;;;;;;;16.45;8.32;;;;;;;15.19;100.00;102674.56;6777041;26;20005;-79
2024/04/12 06:50:08;;;;;;;20.27;9.20;;;;;;;15.27;100.00;102671.63;6776642;26;19997;-78
2024/04/12 06:53:08;;;;;;;18.58;9.75;;;;;;;15.27;100.00;102678.69;6776680;26;20036;-78
2024/04/12 06:56:15;;;;;;;23.92;10.07;;;;;;;15.26;100.00;102682.25;6776600;26;19994;-78
2024/04/12 06:59:18;;;;;;;18.88;10.18;;;;;;;15.24;100.00;102679.69;6776853;26;20006;-77
2024/04/12 07:02:23;;;;;;;18.92;9.82;;;;;;;15.18;100.00;102682.59;6776393;26;20075;-78
2024/04/12 07:05:27;;;;;;;21.90;10.65;;;;;;;15.14;100.00;102684.50;6776708;26;19994;-80
2024/04/12 07:08:30;;;;;;;21.10;10.45;;;;;;;15.05;100.00;102678.72;6776339;26;20267;-80
2024/04/12 07:11:31;;;;;;;20.95;10.70;;;;;;;15.08;100.00;102674.19;6776555;26;19991;-81
2024/04/12 07:14:41;;;;;;;25.13;11.13;;;;;;;15.12;100.00;102682.81;6770331;26;20022;-77
2024/04/12 07:17:47;;;;;;;;;;;;;;;15.22;100.00;102686.84;6791033;26;20063;-80
2024/04/12 07:20:52;;;;;;;14.93;8.32;;;;;;;15.16;100.00;102698.53;6773592;26;20458;-77
2024/04/12 07:23:55;;;;;;;21.17;9.52;;;;;;;15.18;100.00;102690.53;6782193;26;20003;-78
2024/04/12 07:26:55;;;;;;;20.58;8.95;;;;;;;15.19;100.00;102694.91;6777915;26;20009;-77
2024/04/12 07:29:58;;;;;;;19.55;9.10;;;;;;;15.21;100.00;102696.56;6779051;26;20006;-77
2024/04/12 07:32:59;;;;;;;16.20;8.65;;;;;;;15.26;100.00;102699.03;6778005;26;20294;-83
2024/04/12 07:36:16;;;;;;;17.27;7.80;;;;;;;15.29;100.00;102704.19;6776316;26;19999;-81
2024/04/12 07:39:17;;;;;;;15.65;8.68;;;;;;;15.23;100.00;102717.69;6775820;26;19991;-77
2024/04/12 07:42:22;;;;;;;18.38;8.73;;;;;;;15.29;100.00;102706.84;6775932;26;20062;-78
2024/04/12 07:45:24;;;;;;;18.75;8.45;;;;;;;15.31;100.00;102710.31;6776304;26;19991;-80
2024/04/12 07:48:28;;;;;;;21.98;9.98;;;;;;;15.26;100.00;102709.63;6789611;26;20063;-81
2024/04/12 07:51:39;;;;;;;25.17;10.25;;;;;;;15.30;100.00;102710.34;6788762;26;20315;-83
2024/04/12 07:54:40;;;;;;;20.40;9.90;;;;;;;15.34;100.00;102710.16;6776487;26;20084;-83
2024/04/12 07:57:50;;;;;;;20.33;9.35;;;;;;;15.38;100.00;102709.09;6777215;26;20022;-82
2024/04/12 08:00:58;;;;;;;19.05;9.73;;;;;;;15.38;100.00;102705.59;6776739;26;20300;-81
2024/04/12 08:04:05;;;;;;;23.30;11.73;;;;;;;15.39;100.00;102702.00;6776862;26;20320;-84
2024/04/12 08:07:18;;;;;;;26.20;12.05;;;;;;;15.38;100.00;102705.59;6777206;26;19995;-83
2024/04/12 08:10:29;;;;;;;23.58;12.40;;;;;;;15.43;100.00;102711.56;6775796;26;20042;-80
2024/04/12 08:13:43;;;;;;;23.10;12.63;;;;;;;15.42;100.00;102694.78;6776786;26;20006;-85
2024/04/12 08:16:46;;;;;;;22.08;11.90;;;;;;;15.56;100.00;102704.81;6777007;26;20006;-80
2024/04/12 08:19:49;;;;;;;26.42;12.90;;;;;;;15.59;100.00;102695.88;6776710;26;19999;-84
2024/04/12 08:22:52;;;;;;;26.92;13.70;;;;;;;15.71;100.00;102692.69;6776494;26;20046;-83
2024/04/12 08:25:58;;;;;;;29.67;14.32;;;;;;;15.72;100.00;102695.31;6775750;26;19994;-83
2024/04/12 08:29:00;;;;;;;27.23;14.88;;;;;;;15.83;100.00;102696.63;6776602;26;20085;-80
2024/04/12 08:32:11;;;;;;;31.55;14.68;;;;;;;15.94;100.00;102689.03;6775619;26;19995;-81
2024/04/12 08:35:19;;;;;;;28.70;13.95;;;;;;;15.95;100.00;102691.63;6774527;26;19999;-82
2024/04/12 08:38:22;;;;;;;25.23;12.98;;;;;;;15.96;100.00;102684.53;6775967;26;19996;-84
2024/04/12 08:41:31;;;;;;;24.70;13.25;;;;;;;16.05;100.00;102686.78;6775451;26;20003;-83
2024/04/12 08:44:35;;;;;;;23.98;12.55;;;;;;;15.97;100.00;102680.94;6775595;26;20117;-88
2024/04/12 08:47:36;;;;;;;22.75;12.65;;;;;;;16.04;100.00;102684.19;6774900;26;20003;-82
2024/04/12 08:50:40;;;;;;;22.70;12.32;;;;;;;15.95;100.00;102682.81;6775283;26;20038;-82
2024/04/12 08:53:44;;;;;;;24.00;12.23;;;;;;;15.92;100.00;102682.94;6775019;26;20023;-84
2024/04/12 08:56:52;;;;;;;26.42;12.73;;;;;;;15.93;100.00;102676.72;6770118;26;19998;-80
2024/04/12 08:59:58;;;;;;;29.43;13.00;;;;;;;16.02;100.00;102678.09;6775375;26;19994;-83
2024/04/12 09:03:10;;;;;;;24.13;11.88;;;;;;;16.11;100.00;102670.56;6775500;26;20003;-80
2024/04/12 09:06:18;;;;;;;23.33;12.32;;;;;;;16.17;100.00;102678.25;6776757;26;20021;-79
2024/04/12 09:09:24;;;;;;;21.90;11.32;;;;;;;16.21;100.00;102678.97;6775545;26;20051;-84
2024/04/12 09:12:24;;;;;;;24.98;12.07;;;;;;;16.11;100.00;102670.56;6754073;26;20057;-83
2024/04/12 09:15:27;;;;;;;26.50;12.93;;;;;;;16.10;100.00;102673.31;6731025;26;20008;-81
2024/04/12 09:18:43;;;;;;;23.05;11.82;;;;;;;16.14;100.00;102677.53;6770477;26;20030;-79
2024/04/12 09:21:58;;;;;;;24.48;12.10;;;;;;;16.10;100.00;102671.50;6777092;26;20378;-82
2024/04/12 09:25:14;;;;;;;23.10;11.43;;;;;;;16.22;100.00;102684.22;6819844;26;20005;-79
2024/04/12 09:28:18;;;;;;;28.10;12.27;;;;;;;16.17;100.00;102670.31;6754867;26;19999;-81
2024/04/12 09:34:40;;;;;;;25.97;13.07;;;;;;;16.35;100.00;102665.06;6750115;26;20408;-84
2024/04/12 09:37:54;;;;;;;21.80;10.65;;;;;;;16.32;100.00;102675.81;6775036;26;20319;-81
2024/04/12 09:41:03;;;;;;;18.58;10.38;;;;;;;16.52;100.00;102673.09;6774373;26;19998;-79
2024/04/12 09:44:14;;;;;;;;;;;;;;;16.46;100.00;102678.69;6774374;26;20007;-79
2024/04/12 10:37:56;;;;;;;15.38;8.82;;;;;;;17.10;100.00;102650.81;6869934;26;19993;-78
2024/04/12 10:41:02;;;;;;;16.98;9.18;;;;;;;17.18;100.00;102640.69;6867766;26;20024;-78
2024/04/12 10:44:05;;;;;;;17.55;9.65;;;;;;;17.23;100.00;102636.84;6868420;25;20008;-76
2024/04/12 10:47:12;;;;;;;16.45;8.57;;;;;;;17.31;100.00;102644.44;6868188;26;20049;-75
2024/04/12 10:50:14;;;;;;;14.35;8.55;;;;;;;17.27;100.00;102652.63;6867759;26;20005;-75
2024/04/12 10:53:17;;;;;;;18.80;9.38;;;;;;;17.33;100.00;102647.00;6867628;26;20001;-75
2024/04/12 10:56:18;;;;;;;14.75;8.18;;;;;;;17.49;100.00;102632.84;6867668;26;20373;-75
2024/04/12 10:59:30;;;;;;;18.33;8.38;;;;;;;17.70;100.00;102635.28;6866535;26;20025;-75
2024/04/12 11:02:33;;;;;;;15.30;8.70;;;;;;;17.76;100.00;102635.03;6853400;26;20005;-74
2024/04/12 11:05:44;;;;;;;15.80;8.27;;;;;;;17.87;100.00;102629.09;6867557;25;19993;-75
2024/04/12 11:08:48;;;;;;;14.07;8.00;;;;;;;17.89;100.00;102621.91;6867734;25;20001;-75
2024/04/12 11:11:48;;;;;;;15.13;8.38;;;;;;;17.99;100.00;102618.66;6865926;25;19997;-76
2024/04/12 11:15:12;;;;;;;19.60;8.82;;;;;;;18.26;100.00;102612.78;6866490;26;20282;-77
2024/04/12 11:31:47;;;;;;;13.45;6.40;;;;;;;18.44;100.00;102605.50;6870292;26;19993;-75
2024/04/12 11:34:53;;;;;;;14.05;7.35;;;;;;;18.43;100.00;102610.00;6864652;26;20001;-76
2024/04/12 11:37:57;;;;;;;12.75;6.65;;;;;;;18.42;100.00;102605.63;6858669;26;20043;-76
2024/04/12 11:41:04;;;;;;;11.95;6.20;;;;;;;18.33;100.00;102602.63;6866334;26;19994;-76
2024/04/12 11:44:05;;;;;;;9.98;5.22;;;;;;;18.48;100.00;102599.94;6867015;26;19993;-75
2024/04/12 11:47:09;;;;;;;11.88;6.45;;;;;;;18.69;100.00;102597.88;6866022;26;20012;-76
2024/04/12 11:50:15;;;;;;;12.85;6.43;;;;;;;18.91;100.00;102596.63;6866730;25;19997;-76
2024/04/12 11:53:15;;;;;;;15.05;5.95;;;;;;;18.80;100.00;102594.59;6866521;25;19989;-77
2024/04/12 11:56:18;;;;;;;13.75;6.43;;;;;;;18.81;100.00;102596.31;6866867;25;20005;-76
2024/04/12 11:59:27;;;;;;;8.27;5.55;;;;;;;18.82;100.00;102598.03;6866759;25;19998;-76
2024/04/12 12:02:28;;;;;;;11.02;6.28;;;;;;;18.74;100.00;102601.13;6831755;25;20005;-77
2024/04/12 12:05:37;;;;;;;9.63;5.68;;;;;;;18.72;100.00;102608.38;6866513;25;19997;-77
2024/04/12 12:08:41;;;;;;;12.35;5.38;;;;;;;18.77;100.00;102594.78;6866258;25;20004;-76
2024/04/12 12:11:44;;;;;;;12.75;5.97;;;;;;;18.81;100.00;102606.97;6866068;25;20258;-77
2024/04/12 12:14:45;;;;;;;12.98;6.50;;;;;;;18.84;100.00;102590.78;6866137;25;19993;-75
2024/04/12 12:17:48;;;;;;;11.60;6.25;;;;;;;19.12;100.00;102589.16;6866413;25;20367;-76
2024/04/12 12:20:51;;;;;;;12.65;6.13;;;;;;;19.13;100.00;102593.56;6866207;25;20008;-76
2024/04/12 12:23:55;;;;;;;10.32;5.97;;;;;;;19.08;100.00;102591.16;6832125;25;19998;-77
2024/04/12 12:26:56;;;;;;;12.88;6.78;;;;;;;19.00;100.00;102586.28;6820328;26;19998;-76
2024/04/12 12:30:02;;;;;;;11.68;6.00;;;;;;;19.00;100.00;102580.09;6820372;26;19998;-77
2024/04/12 12:33:07;;;;;;;14.50;6.85;;;;;;;18.95;100.00;102572.38;6819982;26;19990;-76
2024/04/12 12:36:13;;;;;;;12.43;6.07;;;;;;;18.93;100.00;102582.25;6846078;26;20009;-79
2024/04/12 12:39:13;;;;;;;12.52;7.22;;;;;;;18.85;100.00;102581.00;6859068;25;20005;-78
2024/04/12 12:42:16;;;;;;;14.20;6.93;;;;;;;18.69;100.00;102571.25;6865531;25;20009;-77
2024/04/12 12:45:17;;;;;;;10.95;6.32;;;;;;;18.66;100.00;102562.53;6865416;26;20012;-76
2024/04/12 12:48:22;;;;;;;13.50;7.15;;;;;;;18.75;100.00;102560.22;6864757;25;19997;-76
2024/04/12 12:51:26;;;;;;;11.40;7.18;;;;;;;18.86;100.00;102567.59;6865080;26;19989;-76
2024/04/12 12:54:29;;;;;;;12.48;6.85;;;;;;;18.89;100.00;102553.22;6865221;26;20012;-76
2024/04/12 12:57:38;;;;;;;13.10;7.55;;;;;;;19.06;100.00;102555.75;6865467;26;20253;-76
2024/04/12 13:00:44;;;;;;;;;;;;;;;19.05;100.00;102555.84;6860801;26;20279;-76
2024/04/12 13:03:44;;;;;;;16.50;8.05;;;;;;;19.09;100.00;102550.22;6865132;25;20236;-76
2024/04/12 13:06:50;;;;;;;14.88;7.38;;;;;;;19.07;100.00;102556.59;6865151;25;20005;-76
2024/04/12 13:09:53;;;;;;;14.20;7.32;;;;;;;19.00;100.00;102551.66;6864825;25;20053;-76
2024/04/12 13:12:56;;;;;;;16.77;8.57;;;;;;;18.94;100.00;102560.03;6864874;25;20004;-76
2024/04/12 13:15:58;;;;;;;11.93;7.63;;;;;;;19.10;100.00;102535.94;6864833;25;19989;-76
2024/04/12 13:19:01;;;;;;;14.98;7.30;;;;;;;19.34;100.00;102538.91;6864629;25;19994;-76
2024/04/12 13:22:04;;;;;;;15.40;7.88;;;;;;;19.52;100.00;102542.25;6865251;25;20061;-75
2024/04/12 13:25:11;;;;;;;17.27;8.55;;;;;;;19.43;100.00;102534.81;6869047;25;20001;-76
2024/04/12 13:28:12;;;;;;;12.43;8.50;;;;;;;19.46;100.00;102530.16;6869004;25;19989;-76
2024/04/12 13:31:16;;;;;;;15.02;7.90;;;;;;;19.55;100.00;102525.22;6869231;25;20000;-76
2024/04/12 13:34:18;;;;;;;14.30;8.75;;;;;;;19.59;100.00;102524.91;6869542;25;19993;-76
2024/04/12 13:37:25;;;;;;;15.00;8.23;;;;;;;19.42;100.00;102512.63;6869594;25;19997;-76
2024/04/12 13:40:28;;;;;;;12.27;8.30;;;;;;;19.48;100.00;102517.59;6869214;25;20357;-76
2024/04/12 13:43:31;;;;;;;12.30;8.10;;;;;;;19.50;100.00;102504.16;6868302;25;20377;-76
2024/04/12 13:53:36;;;;;;;12.55;7.40;;;;;;;19.91;95.85;102487.34;6728991;26;19986;-76
2024/04/12 13:56:39;;;;;;;13.82;7.78;;;;;;;19.86;95.79;102486.81;6725288;26;20018;-77
2024/04/12 13:59:44;;;;;;;12.80;7.45;;;;;;;20.06;98.14;102488.16;6865860;26;20030;-76
2024/04/12 14:02:47;;;;;;;15.20;8.65;;;;;;;19.86;95.94;102497.47;6857057;26;20321;-76
2024/04/12 14:05:53;;;;;;;12.93;7.53;;;;;;;19.77;96.57;102494.44;6866534;26;20001;-76
2024/04/12 14:09:00;;;;;;;13.25;8.30;;;;;;;19.77;99.66;102491.78;6858601;26;19994;-78
2024/04/12 14:12:03;;;;;;;13.38;6.65;;;;;;;19.82;97.90;102490.63;6868153;26;19989;-77
2024/04/12 14:15:04;;;;;;;11.20;6.65;;;;;;;19.86;95.32;102484.13;6868867;26;20095;-77
2024/04/12 14:18:07;;;;;;;10.48;6.35;;;;;;;19.87;92.57;102477.84;6863578;25;19997;-76
2024/04/12 14:21:07;;;;;;;12.02;5.85;;;;;;;20.06;94.99;102480.16;6867883;25;20392;-75
2024/04/12 14:24:56;;;;;;;11.75;6.15;;;;;;;20.07;90.93;102477.38;6867999;26;19997;-75
2024/04/12 14:27:34;;;;;;;12.93;5.63;;;;;;;20.10;88.71;102473.66;6867993;26;20061;-74
2024/04/12 14:30:37;;;;;;;11.88;5.88;;;;;;;20.26;87.91;102469.88;6868400;25;19997;-74
2024/04/12 14:33:38;;;;;;;9.52;4.93;;;;;;;20.39;88.30;102467.22;6866527;25;20427;-75
2024/04/12 14:36:41;;;;;;;10.88;5.65;;;;;;;20.70;84.81;102458.00;6867048;25;20009;-75
2024/04/12 14:39:47;;;;;;;9.13;5.30;;;;;;;20.75;80.99;102445.16;6867538;25;20033;-77
2024/04/12 14:42:48;;;;;;;9.52;5.28;;;;;;;20.45;81.49;102445.44;6867909;25;20001;-75
2024/04/12 14:45:51;;;;;;;7.95;5.07;;;;;;;20.41;84.31;102430.59;6859650;26;20005;-76
2024/04/12 14:48:51;;;;;;;12.45;5.38;;;;;;;20.40;84.31;102434.22;6867163;25;20050;-73
2024/04/12 14:51:55;;;;;;;8.88;5.05;;;;;;;20.18;80.95;102432.16;6862576;26;20005;-74
2024/04/12 14:54:58;;;;;;;7.30;4.55;;;;;;;20.21;80.71;102429.28;6845579;26;20012;-75
2024/04/12 14:58:03;;;;;;;9.38;4.40;;;;;;;20.21;81.41;102412.38;6867853;25;19998;-74
2024/04/12 15:01:03;;;;;;;9.55;4.53;;;;;;;20.31;80.37;102420.66;6845269;26;20008;-74
2024/04/12 15:50:32;;;;;;;7.95;3.78;;;;;;;20.04;79.02;102420.69;6858114;21;20016;-73
2024/04/12 15:53:35;;;;;;;9.93;4.07;;;;;;;20.09;80.26;102410.56;6816439;26;20266;-73
2024/04/12 16:13:20;;;;;;;9.45;4.38;;;;;;;19.94;80.64;102394.63;6823557;26;20013;-73
2024/04/12 16:16:26;;;;;;;8.30;3.55;;;;;;;19.92;81.78;102393.84;6820495;26;19994;-74